Time;durP1;ratioP1;P1;durP2;ratioP2;P2;SDS_P1;SDS_P2;PMS_P1;PMS_P2;Temp;Humidity;BMP_temperature;BMP_pressure;BME280_temperature;BME280_humidity;BME280_pressure;Samples;Min_cycle;Max_cycle;Signal;HPM_P1;HPM_P2
2023/03/15 00:00:55;;;;;;;3.23;2.23;;;4.90;99.90;;;;;;5096057;28;20540;-54
2023/03/15 00:03:23;;;;;;;2.20;2.00;;;5.00;99.90;;;;;;5096303;28;20287;-56
2023/03/15 00:05:51;;;;;;;2.87;1.90;;;5.10;99.90;;;;;;5095744;28;20211;-56
2023/03/15 00:08:18;;;;;;;1.70;1.60;;;5.10;99.90;;;;;;5096001;28;20228;-56
2023/03/15 00:10:46;;;;;;;2.33;1.80;;;5.10;99.90;;;;;;5095889;28;20220;-56
2023/03/15 00:13:15;;;;;;;1.70;1.60;;;5.20;99.90;;;;;;5095923;28;20209;-56
2023/03/15 00:15:47;;;;;;;4.30;2.00;;;5.10;99.90;;;;;;5095846;28;20212;-56
2023/03/15 00:18:14;;;;;;;3.27;1.93;;;5.20;99.90;;;;;;5094773;28;20568;-56
2023/03/15 00:20:41;;;;;;;2.53;2.00;;;5.30;99.90;;;;;;5095510;28;20711;-56
2023/03/15 00:23:08;;;;;;;3.53;2.30;;;5.30;99.90;;;;;;5095434;28;20211;-55
2023/03/15 00:25:36;;;;;;;4.23;2.20;;;5.20;99.90;;;;;;5095327;28;20204;-56
2023/03/15 00:28:02;;;;;;;3.33;2.50;;;5.10;99.90;;;;;;5095071;28;20699;-56
2023/03/15 00:30:29;;;;;;;2.50;2.30;;;5.10;99.90;;;;;;5095080;28;20707;-57
2023/03/15 00:32:57;;;;;;;3.57;2.60;;;5.10;99.90;;;;;;5095067;28;20208;-56
2023/03/15 00:35:24;;;;;;;3.00;2.60;;;5.20;99.90;;;;;;5094819;28;20216;-56
2023/03/15 00:37:55;;;;;;;3.60;2.97;;;5.20;99.90;;;;;;5095335;28;20204;-55
2023/03/15 00:40:22;;;;;;;3.93;2.87;;;5.20;99.90;;;;;;5095330;28;20247;-55
2023/03/15 00:42:49;;;;;;;5.20;3.07;;;5.20;99.90;;;;;;5095049;28;20212;-55
2023/03/15 00:45:16;;;;;;;4.03;3.50;;;5.10;99.90;;;;;;5094779;28;20674;-55
2023/03/15 00:47:43;;;;;;;5.20;3.93;;;5.10;99.90;;;;;;5094729;28;20698;-55
2023/03/15 00:50:11;;;;;;;3.97;3.57;;;5.00;99.90;;;;;;5094737;28;20225;-56
2023/03/15 00:52:38;;;;;;;5.53;3.77;;;4.90;99.90;;;;;;5094880;28;20650;-56
2023/03/15 00:55:06;;;;;;;4.70;3.80;;;4.90;99.90;;;;;;5094730;28;20219;-55
2023/03/15 00:57:34;;;;;;;4.00;3.10;;;4.80;99.90;;;;;;5094550;28;20200;-59
2023/03/15 01:00:05;;;;;;;5.03;3.90;;;4.90;99.90;;;;;;5094549;28;20293;-56
2023/03/15 01:02:33;;;;;;;3.87;3.30;;;5.00;99.90;;;;;;5094917;28;20589;-55
2023/03/15 01:05:00;;;;;;;4.63;3.27;;;5.10;99.90;;;;;;5094028;28;20212;-57
2023/03/15 01:07:28;;;;;;;4.90;3.33;;;5.20;99.90;;;;;;5094190;28;20228;-55
2023/03/15 01:09:55;;;;;;;3.50;2.90;;;5.10;99.90;;;;;;5094488;28;20250;-56
2023/03/15 01:12:22;;;;;;;3.27;2.80;;;5.10;99.90;;;;;;5094833;28;20208;-55
2023/03/15 01:14:48;;;;;;;4.30;2.87;;;5.20;99.90;;;;;;5094368;28;20567;-55
2023/03/15 01:17:15;;;;;;;5.77;3.00;;;5.30;99.90;;;;;;5094462;28;20204;-56
2023/03/15 01:19:42;;;;;;;3.97;2.97;;;5.40;99.90;;;;;;5094719;28;20225;-56
2023/03/15 01:22:09;;;;;;;3.93;3.03;;;5.50;99.90;;;;;;5094290;28;20196;-56
2023/03/15 01:24:37;;;;;;;3.80;3.30;;;5.60;99.90;;;;;;5094401;28;20200;-56
2023/03/15 01:27:04;;;;;;;3.87;3.00;;;5.70;99.90;;;;;;5094015;28;20224;-57
2023/03/15 01:29:31;;;;;;;4.43;3.10;;;5.70;99.90;;;;;;5094175;28;20618;-55
2023/03/15 01:31:57;;;;;;;3.83;3.10;;;5.80;99.90;;;;;;5094239;28;20563;-56
2023/03/15 01:34:24;;;;;;;4.50;3.27;;;5.80;99.90;;;;;;5093920;28;20215;-57
2023/03/15 01:36:52;;;;;;;4.07;3.20;;;5.90;99.90;;;;;;5094333;28;20200;-57
2023/03/15 01:39:19;;;;;;;6.50;3.20;;;5.90;99.90;;;;;;5094284;28;20289;-57
2023/03/15 01:41:47;;;;;;;3.70;3.23;;;5.90;99.90;;;;;;5093958;28;20591;-56
2023/03/15 01:44:14;;;;;;;6.13;3.93;;;5.80;99.90;;;;;;5093808;28;20211;-55
2023/03/15 01:46:41;;;;;;;5.63;4.00;;;5.90;99.90;;;;;;5094202;28;20660;-57
2023/03/15 01:49:11;;;;;;;7.73;4.57;;;5.90;99.90;;;;;;5094143;28;20711;-57
2023/03/15 01:51:45;;;;;;;6.87;3.93;;;5.90;99.90;;;;;;5093720;28;20571;-57
2023/03/15 01:54:16;;;;;;;4.97;4.10;;;5.90;99.90;;;;;;5093682;28;20212;-57
2023/03/15 01:56:50;;;;;;;6.53;4.13;;;6.00;99.90;;;;;;5094178;28;20215;-57
2023/03/15 01:59:23;;;;;;;9.37;4.30;;;6.00;99.90;;;;;;5094086;28;20232;-57
2023/03/15 02:01:53;;;;;;;5.30;4.00;;;5.90;99.90;;;;;;5094441;28;20691;-57
2023/03/15 02:04:25;;;;;;;5.50;3.80;;;5.70;99.90;;;;;;5091573;28;20668;-57
2023/03/15 02:06:57;;;;;;;8.27;4.50;;;5.70;99.90;;;;;;5091557;28;20201;-55
2023/03/15 02:09:28;;;;;;;6.70;3.97;;;5.60;99.90;;;;;;5091719;28;20239;-58
2023/03/15 02:11:57;;;;;;;5.83;4.03;;;5.70;99.90;;;;;;5092170;28;20276;-56
2023/03/15 02:14:24;;;;;;;6.13;3.77;;;5.70;99.90;;;;;;5092033;28;20291;-55
2023/03/15 02:16:52;;;;;;;8.67;3.63;;;5.70;99.90;;;;;;5091964;28;20204;-55
2023/03/15 02:19:35;;;;;;;7.60;3.73;;;5.60;99.90;;;;;;5091909;28;20388;-56
2023/03/15 02:22:10;;;;;;;8.77;4.10;;;5.60;99.90;;;;;;5091705;28;20210;-56
2023/03/15 02:24:46;;;;;;;8.93;3.50;;;5.70;99.90;;;;;;5091595;28;20204;-57
2023/03/15 02:27:15;;;;;;;4.83;3.10;;;5.70;99.90;;;;;;5091457;28;20371;-56
2023/03/15 02:29:43;;;;;;;4.93;3.40;;;5.60;99.90;;;;;;5091880;28;20228;-56
2023/03/15 02:32:10;;;;;;;7.60;3.07;;;5.40;99.90;;;;;;5091551;28;20208;-57
2023/03/15 02:34:37;;;;;;;5.43;3.07;;;5.20;99.90;;;;;;5090526;28;20220;-56
2023/03/15 02:37:04;;;;;;;4.60;3.00;;;5.00;99.90;;;;;;5090961;28;20212;-56
2023/03/15 02:39:30;;;;;;;4.90;2.73;;;4.80;99.90;;;;;;5091405;28;20306;-57
2023/03/15 02:41:58;;;;;;;6.83;3.30;;;4.70;99.90;;;;;;5090607;28;20291;-56
2023/03/15 02:44:29;;;;;;;5.90;2.83;;;4.50;99.90;;;;;;5090175;28;20303;-57
2023/03/15 02:47:01;;;;;;;8.73;3.40;;;4.40;99.90;;;;;;5089947;28;20560;-57
2023/03/15 02:49:35;;;;;;;7.67;3.30;;;4.30;99.90;;;;;;5089753;28;20224;-56
2023/03/15 02:52:02;;;;;;;5.33;3.50;;;4.20;99.90;;;;;;5090103;28;20512;-56
2023/03/15 02:54:28;;;;;;;5.70;3.10;;;4.10;99.90;;;;;;5089265;28;20277;-57
2023/03/15 02:56:55;;;;;;;4.90;2.80;;;4.00;99.90;;;;;;5089876;28;20235;-56
2023/03/15 02:59:22;;;;;;;8.17;2.97;;;3.90;99.90;;;;;;5090405;28;20239;-55
2023/03/15 03:01:50;;;;;;;5.17;2.70;;;3.90;99.90;;;;;;5090629;28;20307;-56
2023/03/15 03:04:18;;;;;;;8.47;2.80;;;3.80;99.90;;;;;;5089920;28;20208;-56
2023/03/15 03:06:44;;;;;;;5.90;2.50;;;3.80;99.90;;;;;;5089935;28;20620;-56
2023/03/15 03:09:11;;;;;;;4.47;2.37;;;3.70;99.90;;;;;;5089537;28;20485;-55
2023/03/15 03:11:38;;;;;;;5.80;2.80;;;3.60;99.90;;;;;;5090335;28;20198;-56
2023/03/15 03:14:05;;;;;;;4.97;2.70;;;3.60;99.90;;;;;;5089198;28;20222;-56
2023/03/15 03:16:32;;;;;;;6.50;2.70;;;3.60;99.90;;;;;;5089435;28;20215;-56
2023/03/15 03:18:59;;;;;;;4.60;2.60;;;3.50;99.90;;;;;;5089212;28;20212;-55
2023/03/15 03:21:27;;;;;;;5.13;2.57;;;3.50;99.90;;;;;;5088960;28;20211;-56
2023/03/15 03:23:54;;;;;;;4.00;2.20;;;3.50;99.90;;;;;;5089170;28;20210;-56
2023/03/15 03:26:21;;;;;;;4.33;2.17;;;3.40;99.90;;;;;;5089237;28;20678;-55
2023/03/15 03:28:48;;;;;;;5.20;2.57;;;3.50;99.90;;;;;;5089392;28;20227;-57
2023/03/15 03:31:20;;;;;;;5.27;2.53;;;3.60;99.90;;;;;;5090905;28;20236;-57
2023/03/15 03:33:47;;;;;;;5.23;2.27;;;3.70;99.90;;;;;;5092283;28;20208;-57
2023/03/15 03:36:14;;;;;;;5.37;2.47;;;3.70;99.90;;;;;;5091904;28;20212;-57
2023/03/15 03:38:43;;;;;;;3.77;2.47;;;3.70;99.90;;;;;;5092062;28;20203;-56
2023/03/15 03:41:10;;;;;;;6.00;2.27;;;3.70;99.90;;;;;;5092141;28;20599;-57
2023/03/15 03:43:37;;;;;;;3.43;2.50;;;3.60;99.90;;;;;;5092222;28;20200;-56
2023/03/15 03:46:05;;;;;;;7.40;2.40;;;3.60;99.90;;;;;;5091686;28;20695;-57
2023/03/15 03:48:32;;;;;;;5.97;2.47;;;3.50;99.90;;;;;;5091973;28;20228;-56
2023/03/15 03:50:59;;;;;;;8.03;2.20;;;3.50;99.90;;;;;;5091943;28;20220;-57
2023/03/15 03:53:26;;;;;;;6.23;2.20;;;3.40;99.90;;;;;;5092424;28;20204;-57
2023/03/15 03:55:54;;;;;;;5.23;2.30;;;3.40;99.90;;;;;;5095508;28;20253;-57
2023/03/15 03:58:21;;;;;;;5.73;2.73;;;3.30;99.90;;;;;;5095858;28;20257;-56
2023/03/15 04:00:48;;;;;;;5.27;2.30;;;3.20;99.90;;;;;;5095495;28;20651;-57
2023/03/15 04:03:15;;;;;;;7.00;3.20;;;3.20;99.90;;;;;;5095486;28;20311;-56
2023/03/15 04:05:42;;;;;;;4.73;2.33;;;3.20;99.90;;;;;;5095257;28;20223;-55
2023/03/15 04:08:08;;;;;;;5.00;2.60;;;3.10;99.90;;;;;;5095299;28;20225;-57
2023/03/15 04:10:35;;;;;;;5.27;2.50;;;3.10;99.90;;;;;;5095582;28;20231;-56
2023/03/15 04:13:03;;;;;;;6.80;2.87;;;3.00;99.90;;;;;;5095301;28;20208;-57
2023/03/15 04:15:31;;;;;;;6.30;2.60;;;3.00;99.90;;;;;;5095290;28;20204;-57
2023/03/15 04:17:57;;;;;;;4.57;2.27;;;3.00;99.90;;;;;;5095376;28;20236;-56
2023/03/15 04:20:26;;;;;;;4.80;2.13;;;2.90;99.90;;;;;;5095369;28;20277;-56
2023/03/15 04:22:53;;;;;;;5.77;2.20;;;2.90;99.90;;;;;;5095205;28;20200;-56
2023/03/15 04:25:25;;;;;;;9.20;2.43;;;2.90;99.90;;;;;;5095119;28;20289;-57
2023/03/15 04:27:58;;;;;;;5.53;2.30;;;2.90;99.90;;;;;;5095213;28;20215;-57
2023/03/15 04:30:27;;;;;;;4.63;2.57;;;2.90;99.90;;;;;;5095201;28;20228;-56
2023/03/15 04:32:57;;;;;;;6.07;2.90;;;2.90;99.90;;;;;;5095212;28;20215;-56
2023/03/15 04:35:25;;;;;;;7.30;3.13;;;2.80;99.90;;;;;;5094605;28;20295;-56
2023/03/15 04:37:52;;;;;;;5.20;2.10;;;2.80;99.90;;;;;;5095165;28;20208;-56
2023/03/15 04:40:19;;;;;;;4.17;2.20;;;2.80;99.90;;;;;;5094825;28;20228;-56
2023/03/15 04:42:45;;;;;;;9.20;3.00;;;2.70;99.90;;;;;;5095095;28;20219;-55
2023/03/15 04:45:12;;;;;;;6.20;2.80;;;2.70;99.90;;;;;;5094738;28;20208;-56
2023/03/15 04:47:41;;;;;;;7.97;2.20;;;2.70;99.90;;;;;;5094731;28;20207;-55
2023/03/15 04:50:08;;;;;;;5.87;2.77;;;2.70;99.90;;;;;;5094546;28;20228;-56
2023/03/15 04:52:35;;;;;;;20.40;10.30;;;2.60;99.90;;;;;;5094886;28;20209;-55
2023/03/15 04:55:02;;;;;;;11.47;5.90;;;2.60;99.90;;;;;;5094595;28;20675;-56
2023/03/15 04:57:29;;;;;;;22.27;11.10;;;2.60;99.90;;;;;;5094644;28;20253;-55
2023/03/15 04:59:56;;;;;;;5.00;2.33;;;2.60;99.90;;;;;;5094422;28;20761;-55
2023/03/15 05:02:23;;;;;;;8.67;2.60;;;2.50;99.90;;;;;;5094033;28;20588;-56
2023/03/15 05:04:52;;;;;;;13.27;6.60;;;2.50;99.90;;;;;;5094130;28;20227;-56
2023/03/15 05:07:18;;;;;;;10.80;4.27;;;2.50;99.90;;;;;;5094270;28;20568;-56
2023/03/15 05:09:46;;;;;;;8.13;2.90;;;2.50;99.90;;;;;;5094275;28;20232;-55
2023/03/15 05:12:13;;;;;;;14.97;6.70;;;2.50;99.90;;;;;;5094512;28;20667;-55
2023/03/15 05:14:40;;;;;;;7.90;3.10;;;2.50;99.90;;;;;;5094114;28;20270;-56
2023/03/15 05:17:07;;;;;;;6.97;2.50;;;2.50;99.90;;;;;;5094245;28;20244;-54
2023/03/15 05:19:34;;;;;;;9.37;3.37;;;2.50;99.90;;;;;;5094232;28;20246;-54
2023/03/15 05:22:03;;;;;;;4.43;2.80;;;2.50;99.90;;;;;;5094225;28;20209;-56
2023/03/15 05:24:30;;;;;;;5.30;3.00;;;2.50;99.90;;;;;;5093759;28;20201;-55
2023/03/15 05:26:57;;;;;;;8.60;2.43;;;2.50;99.90;;;;;;5094217;28;20200;-55
2023/03/15 05:29:24;;;;;;;4.30;2.93;;;2.50;99.90;;;;;;5093991;28;20307;-55
2023/03/15 05:31:52;;;;;;;20.63;8.97;;;2.50;99.90;;;;;;5094012;28;20231;-55
2023/03/15 05:34:22;;;;;;;7.40;3.33;;;2.50;99.90;;;;;;5093768;28;20626;-54
2023/03/15 05:36:50;;;;;;;5.10;2.60;;;2.60;99.90;;;;;;5094328;28;20267;-56
2023/03/15 05:39:21;;;;;;;14.43;5.03;;;2.50;99.90;;;;;;5093751;28;20227;-59
2023/03/15 05:41:48;;;;;;;8.10;3.23;;;2.50;99.90;;;;;;5093764;28;20268;-55
2023/03/15 05:44:15;;;;;;;9.90;3.10;;;2.50;99.90;;;;;;5093737;28;20781;-54
2023/03/15 05:46:42;;;;;;;5.93;2.60;;;2.50;99.90;;;;;;5093716;28;20258;-55
2023/03/15 05:49:09;;;;;;;6.87;2.83;;;2.60;99.90;;;;;;5093207;28;20228;-55
2023/03/15 05:51:36;;;;;;;8.00;2.90;;;2.60;99.90;;;;;;5093533;28;20212;-55
2023/03/15 05:54:03;;;;;;;6.00;2.60;;;2.60;99.90;;;;;;5093517;28;20211;-56
2023/03/15 05:56:31;;;;;;;7.90;3.90;;;2.60;99.90;;;;;;5093430;28;20204;-53
2023/03/15 05:59:00;;;;;;;11.43;3.73;;;2.70;99.90;;;;;;5093255;28;20203;-55
2023/03/15 06:01:27;;;;;;;9.33;3.27;;;2.70;99.90;;;;;;5093489;28;20218;-54
2023/03/15 06:03:54;;;;;;;7.47;3.20;;;2.80;99.90;;;;;;5093273;28;20652;-55
2023/03/15 06:06:21;;;;;;;9.40;2.70;;;2.90;99.90;;;;;;5093543;28;20211;-54
2023/03/15 06:08:47;;;;;;;6.17;2.83;;;3.00;99.90;;;;;;5093208;28;20243;-54
2023/03/15 06:11:14;;;;;;;7.43;2.70;;;3.10;99.90;;;;;;5092777;28;20269;-54
2023/03/15 06:13:42;;;;;;;6.67;3.53;;;3.10;99.90;;;;;;5093290;28;20210;-54
2023/03/15 06:16:09;;;;;;;5.47;2.43;;;3.20;99.90;;;;;;5092289;28;20200;-56
2023/03/15 06:18:36;;;;;;;7.67;2.50;;;3.30;99.90;;;;;;5093032;28;20281;-55
2023/03/15 06:21:03;;;;;;;8.73;2.33;;;3.30;99.90;;;;;;5092890;28;20298;-55
2023/03/15 06:23:30;;;;;;;9.00;2.70;;;3.40;99.90;;;;;;5092951;28;20200;-55
2023/03/15 06:25:57;;;;;;;7.90;3.10;;;3.50;99.90;;;;;;5092772;28;20220;-54
2023/03/15 06:28:23;;;;;;;7.53;2.80;;;3.60;99.90;;;;;;5092701;28;20201;-54
2023/03/15 06:30:52;;;;;;;7.70;3.90;;;3.70;99.90;;;;;;5092733;28;20220;-54
2023/03/15 06:33:18;;;;;;;6.87;2.80;;;3.80;99.90;;;;;;5092778;28;20200;-55
2023/03/15 06:35:46;;;;;;;8.97;2.80;;;3.90;99.90;;;;;;5092410;28;20261;-55
2023/03/15 06:38:14;;;;;;;7.40;3.27;;;4.00;99.90;;;;;;5092615;28;20667;-54
2023/03/15 06:40:40;;;;;;;6.10;2.40;;;4.30;99.90;;;;;;5092489;28;20224;-56
2023/03/15 06:43:07;;;;;;;6.07;2.40;;;5.40;99.90;;;;;;5092750;28;20215;-56
2023/03/15 06:45:34;;;;;;;8.77;3.67;;;7.00;99.90;;;;;;5092660;28;20227;-56
2023/03/15 06:48:02;;;;;;;4.93;2.40;;;8.50;99.90;;;;;;5092632;28;20253;-55
2023/03/15 06:50:29;;;;;;;6.63;2.87;;;9.90;99.90;;;;;;5092362;28;20228;-56
2023/03/15 06:52:57;;;;;;;5.20;2.30;;;11.10;99.90;;;;;;5092415;28;20216;-56
2023/03/15 06:55:23;;;;;;;6.23;2.80;;;12.30;99.90;;;;;;5092017;28;20299;-56
2023/03/15 06:57:50;;;;;;;4.50;2.10;;;13.40;99.90;;;;;;5092609;28;20200;-56
2023/03/15 07:00:18;;;;;;;6.57;2.53;;;14.30;99.90;;;;;;5092042;28;20238;-56
2023/03/15 07:02:44;;;;;;;5.20;2.30;;;15.10;99.90;;;;;;5092258;28;20577;-56
2023/03/15 07:05:13;;;;;;;6.37;2.03;;;15.80;98.90;;;;;;5092329;28;20211;-56
2023/03/15 07:07:39;;;;;;;4.35;2.13;;;16.30;97.90;;;;;;5092525;28;20308;-58
2023/03/15 07:10:07;;;;;;;4.63;1.80;;;16.90;94.80;;;;;;5092496;28;20232;-60
2023/03/15 07:12:34;;;;;;;6.25;2.50;;;17.30;93.60;;;;;;5092647;28;20294;-56
2023/03/15 07:15:00;;;;;;;9.60;3.30;;;17.70;91.30;;;;;;5092468;28;20637;-57
2023/03/15 07:17:27;;;;;;;4.78;1.83;;;18.00;91.00;;;;;;5092523;28;20701;-57
2023/03/15 07:19:54;;;;;;;5.65;2.00;;;18.40;85.60;;;;;;5092184;28;20252;-56
2023/03/15 07:22:23;;;;;;;5.20;1.85;;;18.70;83.60;;;;;;5092649;28;20251;-57
2023/03/15 07:24:50;;;;;;;5.35;2.05;;;18.60;81.50;;;;;;5091964;28;20200;-57
2023/03/15 07:27:17;;;;;;;5.95;1.83;;;18.20;83.00;;;;;;5092483;28;20291;-57
2023/03/15 07:29:44;;;;;;;5.07;1.90;;;18.20;81.60;;;;;;5096093;28;20246;-57
2023/03/15 07:32:11;;;;;;;7.30;2.75;;;18.30;81.00;;;;;;5096325;28;20204;-57
2023/03/15 07:34:37;;;;;;;3.45;1.70;;;18.50;80.40;;;;;;5096146;28;20212;-57
2023/03/15 07:37:04;;;;;;;6.60;2.15;;;18.70;78.60;;;;;;5096377;28;20626;-57
2023/03/15 07:39:32;;;;;;;4.80;1.65;;;18.70;78.90;;;;;;5095924;28;20702;-57
2023/03/15 07:42:00;;;;;;;4.82;1.90;;;18.70;78.50;;;;;;5095633;28;20207;-57
2023/03/15 07:44:27;;;;;;;4.25;2.35;;;18.80;77.30;;;;;;5095700;28;20615;-57
2023/03/15 07:46:54;;;;;;;6.38;1.98;;;18.80;77.20;;;;;;5095747;28;20211;-57
2023/03/15 07:49:21;;;;;;;4.85;2.05;;;18.40;76.50;;;;;;5095755;28;20322;-57
2023/03/15 07:51:48;;;;;;;6.60;2.15;;;18.20;77.50;;;;;;5095960;28;20204;-57
2023/03/15 07:54:15;;;;;;;6.80;3.08;;;18.00;78.40;;;;;;5096005;28;20231;-57
2023/03/15 07:56:43;;;;;;;5.53;2.50;;;18.00;77.80;;;;;;5095534;28;20687;-57
2023/03/15 07:59:10;;;;;;;8.68;2.45;;;17.50;77.50;;;;;;5095650;28;20224;-57
2023/03/15 08:01:37;;;;;;;8.57;2.30;;;16.60;79.00;;;;;;5095675;28;20215;-56
2023/03/15 08:04:04;;;;;;;5.20;2.23;;;15.50;81.90;;;;;;5095746;28;20219;-57
2023/03/15 08:06:31;;;;;;;8.57;1.97;;;14.40;85.20;;;;;;5095492;28;20675;-57
2023/03/15 08:09:00;;;;;;;5.87;2.17;;;13.40;87.50;;;;;;5095508;28;20208;-57
2023/03/15 08:11:27;;;;;;;6.23;2.13;;;12.70;89.90;;;;;;5095544;28;20273;-57
2023/03/15 08:13:55;;;;;;;7.63;2.50;;;12.00;90.70;;;;;;5095648;28;20710;-57
2023/03/15 08:16:22;;;;;;;9.43;3.23;;;11.30;91.90;;;;;;5095150;28;20240;-57
2023/03/15 08:18:49;;;;;;;9.80;2.30;;;10.80;92.80;;;;;;5095543;28;20208;-57
2023/03/15 08:21:15;;;;;;;6.53;1.93;;;10.30;93.10;;;;;;5095222;28;20299;-57
2023/03/15 08:23:42;;;;;;;8.03;1.93;;;9.90;94.30;;;;;;5095326;28;20239;-57
2023/03/15 08:26:09;;;;;;;7.27;2.00;;;9.50;95.30;;;;;;5094944;28;20208;-57
2023/03/15 08:28:36;;;;;;;9.80;2.93;;;9.20;95.90;;;;;;5095009;28;20208;-57
2023/03/15 08:31:08;;;;;;;9.87;3.00;;;9.00;96.10;;;;;;5095498;28;20594;-57
2023/03/15 08:33:35;;;;;;;5.27;1.90;;;8.70;96.60;;;;;;5095806;28;20204;-57
2023/03/15 08:36:01;;;;;;;7.43;1.90;;;8.50;97.00;;;;;;5094937;28;20207;-57
2023/03/15 08:38:28;;;;;;;6.03;1.80;;;8.40;97.60;;;;;;5095084;28;20211;-57
2023/03/15 08:40:58;;;;;;;5.90;2.03;;;8.20;98.10;;;;;;5094222;28;20220;-57
2023/03/15 08:43:25;;;;;;;6.60;2.00;;;8.20;98.60;;;;;;5094940;28;20208;-56
2023/03/15 08:45:53;;;;;;;6.47;2.33;;;8.20;99.10;;;;;;5094634;28;20211;-56
2023/03/15 08:48:21;;;;;;;4.80;1.80;;;8.20;98.90;;;;;;5094738;28;20670;-55
2023/03/15 08:50:48;;;;;;;6.00;1.50;;;8.20;98.70;;;;;;5094549;28;20228;-56
2023/03/15 08:53:15;;;;;;;7.50;1.70;;;8.30;97.90;;;;;;5094776;28;20504;-56
2023/03/15 08:55:42;;;;;;;4.50;1.37;;;8.30;98.20;;;;;;5094512;28;20204;-56
2023/03/15 08:58:08;;;;;;;7.10;1.80;;;8.40;98.80;;;;;;5094854;28;20211;-56
2023/03/15 09:00:36;;;;;;;9.00;1.83;;;8.60;99.30;;;;;;5094926;28;20232;-57
2023/03/15 09:03:03;;;;;;;8.37;2.30;;;8.80;97.70;;;;;;5094716;28;20200;-56
2023/03/15 09:05:32;;;;;;;8.87;1.73;;;8.90;97.70;;;;;;5094346;28;20296;-57
2023/03/15 09:07:59;;;;;;;4.40;1.40;;;9.10;97.20;;;;;;5094259;28;20230;-56
2023/03/15 09:10:26;;;;;;;4.93;1.60;;;9.40;97.00;;;;;;5094063;28;20224;-57
2023/03/15 09:12:53;;;;;;;5.07;1.70;;;9.80;96.60;;;;;;5094055;28;20261;-56
2023/03/15 09:15:20;;;;;;;7.30;1.60;;;10.10;95.30;;;;;;5094158;28;20239;-56
2023/03/15 09:17:49;;;;;;;4.23;1.70;;;10.40;95.00;;;;;;5094074;28;20744;-56
2023/03/15 09:20:17;;;;;;;5.13;1.50;;;10.60;94.80;;;;;;5094097;28;20224;-56
2023/03/15 09:22:51;;;;;;;6.53;1.80;;;10.90;94.70;;;;;;5094282;28;20208;-56
2023/03/15 09:25:18;;;;;;;3.80;1.50;;;11.40;93.60;;;;;;5094393;28;20196;-56
2023/03/15 09:27:45;;;;;;;5.13;1.80;;;11.80;93.10;;;;;;5094619;28;20204;-56
2023/03/15 09:30:13;;;;;;;5.20;1.90;;;12.30;93.10;;;;;;5094125;28;20715;-56
2023/03/15 09:32:42;;;;;;;7.23;2.90;;;12.70;92.20;;;;;;5094713;28;20208;-56
2023/03/15 09:35:12;;;;;;;4.30;1.63;;;13.10;92.10;;;;;;5094725;28;20591;-56
2023/03/15 09:37:41;;;;;;;3.63;1.90;;;13.30;91.40;;;;;;5094989;28;20208;-57
2023/03/15 09:40:15;;;;;;;6.77;1.67;;;13.60;91.10;;;;;;5094927;28;20246;-56
2023/03/15 09:42:54;;;;;;;4.67;1.50;;;14.00;90.50;;;;;;5094452;28;20667;-56
2023/03/15 09:45:28;;;;;;;3.20;1.40;;;14.30;84.30;;;;;;5094316;28;20212;-57
2023/03/15 09:48:04;;;;;;;3.50;1.50;;;14.40;82.40;;;;;;5094620;28;20276;-57
2023/03/15 09:50:34;;;;;;;3.13;1.40;;;14.40;80.20;;;;;;5093908;28;20736;-57
2023/03/15 09:53:04;;;;;;;5.00;1.67;;;14.40;81.20;;;;;;5093863;28;20314;-57
2023/03/15 09:55:33;;;;;;;7.27;1.70;;;14.60;81.30;;;;;;5093893;28;20208;-57
2023/03/15 09:58:01;;;;;;;5.13;1.40;;;14.90;80.20;;;;;;5094706;28;20200;-57
2023/03/15 10:00:36;;;;;;;7.17;1.13;;;15.10;80.80;;;;;;5094039;28;20312;-62
2023/03/15 10:03:06;;;;;;;3.30;1.40;;;15.10;77.80;;;;;;5089290;28;20676;-56
2023/03/15 10:05:40;;;;;;;2.67;1.40;;;15.10;77.60;;;;;;5076296;28;20695;-56
2023/03/15 10:08:11;;;;;;;5.13;1.40;;;15.20;77.00;;;;;;5096537;28;20207;-64
2023/03/15 10:10:45;;;;;;;5.27;1.47;;;15.10;75.10;;;;;;5096613;28;20231;-60
2023/03/15 10:13:33;;;;;;;4.40;1.37;;;15.10;75.50;;;;;;5096606;28;20200;-62
2023/03/15 10:16:10;;;;;;;4.57;1.40;;;14.80;76.80;;;;;;5094127;28;20208;-62
2023/03/15 10:18:56;;;;;;;6.80;1.83;;;14.60;76.00;;;;;;5094490;28;20207;-60
2023/03/15 10:21:34;;;;;;;5.70;1.50;;;14.40;75.20;;;;;;5095283;28;20283;-61
2023/03/15 10:24:02;;;;;;;3.57;1.30;;;14.40;73.90;;;;;;5095713;28;20200;-63
2023/03/15 10:26:35;;;;;;;4.80;1.40;;;14.30;74.90;;;;;;5095739;28;20204;-59
2023/03/15 10:29:08;;;;;;;4.30;1.23;;;14.10;76.00;;;;;;5094999;28;20208;-59
2023/03/15 10:31:40;;;;;;;4.17;1.23;;;14.10;76.70;;;;;;5094620;28;20662;-58
2023/03/15 10:34:10;;;;;;;4.47;1.60;;;14.30;76.70;;;;;;5093380;28;20208;-58
2023/03/15 10:36:37;;;;;;;4.60;1.40;;;14.40;76.30;;;;;;5092510;28;20243;-58
2023/03/15 10:39:05;;;;;;;3.67;1.27;;;14.50;73.90;;;;;;5093528;28;20230;-58
2023/03/15 10:41:41;;;;;;;4.43;1.17;;;14.60;73.10;;;;;;5092784;28;20200;-58
2023/03/15 10:44:12;;;;;;;3.27;1.20;;;14.50;72.80;;;;;;5092397;28;20218;-58
2023/03/15 10:46:39;;;;;;;8.40;6.20;;;14.40;73.10;;;;;;5092536;28;20185;-58
2023/03/15 10:49:11;;;;;;;4.37;1.40;;;14.10;73.80;;;;;;5092688;28;20243;-58
2023/03/15 10:51:42;;;;;;;3.73;1.30;;;13.90;74.10;;;;;;5092632;28;20216;-59
2023/03/15 10:54:13;;;;;;;6.70;1.70;;;13.70;74.80;;;;;;5092189;28;20239;-59
2023/03/15 10:56:47;;;;;;;3.43;1.80;;;13.70;75.00;;;;;;5091519;28;20307;-58
2023/03/15 10:59:20;;;;;;;4.50;1.40;;;13.80;74.60;;;;;;5091817;28;20240;-58
2023/03/15 11:01:49;;;;;;;6.90;2.23;;;13.90;74.50;;;;;;5089029;28;20318;-59
2023/03/15 11:04:18;;;;;;;3.83;1.20;;;14.10;74.90;;;;;;5090703;28;20660;-61
2023/03/15 11:06:48;;;;;;;5.00;1.40;;;14.40;75.20;;;;;;5091742;28;20230;-59
2023/03/15 11:09:17;;;;;;;7.97;2.23;;;14.50;75.00;;;;;;5090774;28;20228;-59
2023/03/15 11:12:03;;;;;;;13.83;6.03;;;14.50;74.50;;;;;;5089509;28;20231;-58
2023/03/15 11:14:35;;;;;;;5.17;1.60;;;14.20;73.80;;;;;;5090705;28;20582;-63
2023/03/15 11:17:04;;;;;;;3.20;1.27;;;13.90;75.40;;;;;;5091346;28;20761;-58
2023/03/15 11:19:33;;;;;;;2.87;1.43;;;13.30;75.70;;;;;;5089606;28;20250;-60
2023/03/15 11:22:02;;;;;;;3.90;1.30;;;12.90;77.90;;;;;;5091642;28;20200;-62
2023/03/15 11:24:31;;;;;;;3.13;1.27;;;12.50;78.20;;;;;;5092087;28;20208;-65
2023/03/15 11:27:01;;;;;;;3.73;1.70;;;12.30;79.30;;;;;;5091559;28;20678;-61
2023/03/15 11:29:31;;;;;;;4.47;1.17;;;12.10;80.30;;;;;;5091572;28;20255;-69
2023/03/15 11:32:01;;;;;;;5.30;1.60;;;12.10;80.70;;;;;;5091058;28;20305;-61
2023/03/15 11:34:38;;;;;;;7.43;2.37;;;12.10;81.40;;;;;;5091253;28;20204;-61
2023/03/15 11:37:14;;;;;;;6.50;2.13;;;12.10;82.80;;;;;;5091301;28;20196;-62
2023/03/15 11:39:45;;;;;;;5.73;1.70;;;12.00;82.70;;;;;;5091342;28;20306;-62
2023/03/15 11:42:22;;;;;;;4.73;1.50;;;11.80;83.30;;;;;;5090878;28;20366;-63
2023/03/15 11:44:53;;;;;;;4.43;1.43;;;11.60;84.80;;;;;;5090934;28;20375;-63
2023/03/15 11:47:30;;;;;;;4.77;1.40;;;11.50;86.00;;;;;;5092490;28;20269;-64
2023/03/15 11:49:58;;;;;;;3.90;1.40;;;11.50;86.10;;;;;;5092301;28;20220;-64
2023/03/15 11:52:26;;;;;;;3.83;1.30;;;11.50;86.10;;;;;;5092024;28;20212;-65
2023/03/15 11:54:56;;;;;;;6.93;1.60;;;11.60;85.70;;;;;;5092273;28;20216;-67
2023/03/15 11:57:41;;;;;;;9.20;1.67;;;11.70;85.90;;;;;;5092044;28;20216;-63
2023/03/15 12:00:34;;;;;;;4.60;1.13;;;11.80;85.70;;;;;;5091691;28;20259;-55
2023/03/15 12:03:39;;;;;;;4.90;1.07;;;11.80;85.70;;;;;;5079181;28;20204;-56
2023/03/15 12:06:12;;;;;;;6.30;3.30;;;11.50;85.10;;;;;;5089078;28;20203;-56
2023/03/15 12:08:49;;;;;;;4.97;1.13;;;11.20;87.20;;;;;;5091718;28;20213;-55
2023/03/15 12:11:38;;;;;;;3.87;1.20;;;11.00;86.60;;;;;;5092019;28;20231;-57
2023/03/15 12:14:25;;;;;;;1.80;0.90;;;10.90;87.50;;;;;;5091597;28;20660;-56
2023/03/15 12:16:56;;;;;;;8.77;1.53;;;10.80;88.60;;;;;;5094962;28;20287;-57
2023/03/15 12:19:26;;;;;;;6.77;1.67;;;10.50;89.90;;;;;;5095079;28;20737;-56
2023/03/15 12:21:56;;;;;;;2.60;1.07;;;10.40;90.70;;;;;;5095432;28;20565;-56
2023/03/15 12:24:26;;;;;;;2.50;1.03;;;10.40;92.00;;;;;;5095036;28;20675;-57
2023/03/15 12:27:01;;;;;;;3.53;1.30;;;10.30;92.70;;;;;;5095081;28;20284;-57
2023/03/15 12:29:31;;;;;;;4.03;1.10;;;10.30;93.30;;;;;;5095087;28;20228;-57
2023/03/15 12:32:07;;;;;;;3.77;1.40;;;10.10;94.80;;;;;;5094888;28;20236;-56
2023/03/15 12:34:46;;;;;;;3.87;1.30;;;9.70;96.80;;;;;;5094928;28;20203;-56
2023/03/15 12:37:19;;;;;;;4.13;1.50;;;9.50;98.50;;;;;;5094871;28;20219;-56
2023/03/15 12:39:49;;;;;;;4.73;1.20;;;9.40;99.60;;;;;;5094868;28;20231;-57
2023/03/15 12:42:53;;;;;;;3.03;1.60;;;9.20;99.90;;;;;;5094509;28;20211;-56
2023/03/15 12:45:44;;;;;;;3.30;1.30;;;9.00;99.90;;;;;;5094556;28;20257;-57
2023/03/15 12:48:25;;;;;;;3.93;1.80;;;8.70;99.90;;;;;;5094831;28;20218;-55
2023/03/15 12:51:03;;;;;;;3.77;1.93;;;8.40;99.90;;;;;;5094426;28;20224;-57
2023/03/15 12:53:40;;;;;;;2.77;1.50;;;8.30;99.90;;;;;;5094854;28;20235;-55
2023/03/15 12:56:31;;;;;;;4.07;1.50;;;8.40;99.90;;;;;;5094635;28;20235;-55
2023/03/15 12:59:03;;;;;;;3.03;1.53;;;8.20;99.90;;;;;;5086672;28;20219;-55
2023/03/15 13:01:32;;;;;;;3.03;1.80;;;7.80;99.90;;;;;;5094577;28;20204;-55
2023/03/15 13:03:59;;;;;;;4.97;1.53;;;7.50;99.90;;;;;;5094508;28;20216;-56